Latest Weather Observations for Darwin Airport

IDD60901

Issued at 8:21 am CST Thursday 30 March 2017 (issued every 10 minutes, with the page automatically refreshed every 10 minutes)

About weather observations | Map of Darwin area stations | Latest observations for Darwin area | Other Formats
Station Details ID: 014015 Name: DARWIN AIRPORT Lat: -12.42 Lon: 130.89 Height: 30.4 m
Data from the previous 72 hours. | See also: Recent months at Darwin Airport
Date/Time
CST
Temp
°C
App
Temp
°C
Dew
Point
°C
Rel
Hum
%
Delta-T
°C
Wind Press
QNH
hPa
Press
MSL
hPa
Rain since
9am
mm
Dir  Spd
km/h
Gust
km/h
Spd
kts
Gust
kts
30/08:00am 27.3 32.4 25.5 90 1.3 WNW 9 15 5 8 1009.4 1009.1 26.8
30/07:30am 26.7 30.9 24.8 89 1.3 NW 11 17 6 9 1009.2 1008.9 26.8
30/07:00am 26.4 29.8 24.7 90 1.2 NW 15 20 8 11 1009.3 1009.0 26.8
30/06:30am 26.0 28.2 24.3 90 1.2 NNW 20 28 11 15 1008.9 1008.6 26.6
30/06:00am 25.3 29.2 24.3 94 0.7 N 11 15 6 8 1009.4 1009.1 26.4
30/05:30am 24.7 28.2 22.9 90 1.2 N 9 11 5 6 1009.5 1009.3 26.2
30/05:00am 24.5 27.3 21.5 83 2.0 NNE 9 13 5 7 1009.6 1009.4 26.2
30/04:30am 24.7 27.1 20.9 79 2.5 ESE 9 11 5 6 1009.5 1009.3 26.2
30/04:00am 24.8 26.1 21.6 82 2.1 SE 17 24 9 13 1009.8 1009.6 26.2
30/03:30am 25.0 25.9 22.6 86 1.6 SE 22 35 12 19 1010.1 1009.9 26.2
30/03:00am 24.7 25.6 23.4 92 0.9 ESE 24 35 13 19 1010.5 1010.3 26.2
30/02:46am 24.3 25.3 22.8 91 1.0 ESE 22 35 12 19 1010.6 1010.4 26.2
30/02:30am 24.0 24.3 22.2 90 1.2 ESE 24 39 13 21 1010.9 1010.7 26.2
30/02:28am 24.1 25.1 22.2 89 1.3 ESE 20 37 11 20 1011.0 1010.8 26.2
30/02:00am 24.4 28.6 23.2 93 0.8 E 6 11 3 6 1009.7 1009.5 26.2
30/01:30am 24.5 29.0 23.0 91 1.0 E 4 6 2 3 1009.6 1009.4 26.2
30/01:00am 24.5 28.8 22.7 90 1.2 SSE 4 6 2 3 1009.9 1009.7 26.2
30/12:30am 25.0 27.7 22.2 84 1.9 WSW 11 15 6 8 1009.5 1009.3 26.2
30/12:00am 25.1 28.9 22.7 86 1.6 SW 7 19 4 10 1009.6 1009.4 26.2
 
Date/Time
CST
Temp
°C
App
Temp
°C
Dew
Point
°C
Rel
Hum
%
Delta-T
°C
Wind Press
QNH
hPa
Press
MSL
hPa
Rain since
9am
mm
Dir  Spd
km/h
Gust
km/h
Spd
kts
Gust
kts
29/11:30pm 24.5 25.6 22.0 86 1.7 WNW 19 26 10 14 1008.5 1008.2 26.2
29/11:00pm 23.1 24.5 21.9 93 0.8 NNW 17 22 9 12 1008.8 1008.5 26.0
29/10:30pm 22.5 23.3 21.7 95 0.5 WNW 20 24 11 13 1009.9 1009.7 26.0
29/10:13pm 22.7 23.5 21.8 95 0.6 S 20 37 11 20 1011.0 1010.8 25.8
29/10:00pm 22.6 19.5 22.0 96 0.4 SSE 41 59 22 32 1012.2 1012.0 18.2
29/09:50pm 23.1 18.2 22.4 96 0.5 SE 52 72 28 39 1012.8 1012.6 6.2
29/09:43pm 25.1 25.2 21.8 82 2.2 SSE 24 61 13 33 1012.6 1012.4 0.2
29/09:40pm 26.3 28.9 21.2 73 3.4 S 9 54 5 29 1012.3 1012.1 0.0
29/09:30pm 29.6 36.4 26.2 82 2.4 WNW 2 6 1 3 1011.2 1011.0 0.0
29/09:00pm 29.5 35.0 26.1 82 2.4 WSW 9 13 5 7 1010.6 1010.4 0.0
29/08:30pm 29.4 34.8 26.0 82 2.4 W 9 11 5 6 1010.0 1009.8 0.0
29/08:00pm 29.4 34.0 26.0 82 2.4 W 13 19 7 10 1008.8 1008.5 0.0
29/07:30pm 29.6 33.8 25.9 80 2.6 W 15 22 8 12 1008.0 1007.7 0.0
29/07:00pm 30.0 33.6 25.6 77 3.1 W 17 24 9 13 1008.1 1007.8 0.0
29/06:30pm 30.0 33.6 25.6 77 3.1 W 17 26 9 14 1007.7 1007.4 0.0
29/06:00pm 30.7 33.5 25.2 72 3.9 WNW 20 24 11 13 1007.0 1006.7 0.0
29/05:36pm 31.0 33.4 24.6 68 4.5 W 20 26 11 14 1007.1 1006.8 0.0
29/05:30pm 31.3 33.6 24.5 67 4.8 WSW 20 28 11 15 1006.8 1006.5 0.0
29/05:00pm 31.7 34.3 24.9 67 4.8 W 20 28 11 15 1006.8 1006.5 0.0
29/04:30pm 31.7 34.0 25.1 68 4.7 W 22 32 12 17 1006.5 1006.2 0.0
29/04:00pm 31.6 32.7 25.6 70 4.3 WNW 30 37 16 20 1005.8 1005.5 0.0
29/03:30pm 32.8 34.3 24.9 63 5.6 WNW 26 33 14 18 1006.5 1006.2 0.0
29/03:00pm 32.6 34.7 25.3 65 5.2 WNW 24 32 13 17 1007.1 1006.8 0.0
29/02:30pm 32.8 35.3 24.4 61 5.9 W 19 24 10 13 1007.8 1007.5 0.0
29/02:00pm 32.5 34.7 24.2 61 5.8 WSW 20 28 11 15 1008.1 1007.8 0.0
29/01:30pm 32.3 34.3 24.6 64 5.4 W 22 30 12 16 1008.0 1007.7 0.0
29/01:00pm 32.3 33.4 23.7 60 6.0 W 24 32 13 17 1008.1 1007.8 0.0
29/12:30pm 32.3 33.6 24.6 64 5.4 W 26 37 14 20 1008.4 1008.1 0.0
29/12:00pm 32.1 33.6 24.3 63 5.5 W 24 32 13 17 1008.7 1008.4 0.0
29/11:30am 31.3 33.5 24.9 69 4.5 W 22 32 12 17 1009.0 1008.7 0.0
29/11:00am 31.3 33.5 24.9 69 4.5 W 22 28 12 15 1009.3 1009.0 0.0
29/10:30am 31.1 33.8 24.7 68 4.5 W 19 26 10 14 1009.7 1009.5 0.0
29/10:00am 30.3 33.1 24.9 73 3.8 W 19 26 10 14 1009.7 1009.5 0.0
29/09:30am 30.2 32.9 24.8 73 3.8 WSW 19 24 10 13 1009.5 1009.3 0.0
29/09:00am 30.1 33.4 25.1 74 3.5 WSW 17 26 9 14 1009.5 1009.3 0.2
29/08:30am 29.8 33.1 25.1 76 3.3 W 17 22 9 12 1009.7 1009.5 0.2
29/08:00am 29.1 32.9 25.3 80 2.7 W 15 19 8 10 1009.5 1009.3 0.2
29/07:30am 28.4 32.6 25.4 84 2.1 W 13 17 7 9 1009.1 1008.8 0.2
29/07:00am 28.0 32.6 25.4 86 1.8 W 11 17 6 9 1008.8 1008.5 0.2
29/06:30am 28.0 32.2 25.4 86 1.8 W 13 19 7 10 1008.5 1008.2 0.2
29/06:00am 28.2 32.7 25.2 84 2.1 W 11 15 6 8 1008.4 1008.1 0.2
29/05:30am 28.2 32.5 25.5 85 1.9 W 13 19 7 10 1008.4 1008.1 0.2
29/05:00am 28.4 32.3 25.4 84 2.1 W 15 20 8 11 1008.4 1008.1 0.2
29/04:30am 28.3 32.4 25.8 86 1.8 W 15 20 8 11 1008.4 1008.1 0.2
29/04:00am 28.3 33.2 25.9 87 1.7 W 11 15 6 8 1008.1 1007.8 0.2
29/03:30am 28.2 33.1 25.9 87 1.6 W 11 15 6 8 1008.2 1007.9 0.2
29/03:00am 28.2 32.9 26.1 88 1.5 W 13 19 7 10 1008.3 1008.0 0.2
29/02:30am 28.2 33.3 26.1 88 1.5 W 11 15 6 8 1008.0 1007.7 0.2
29/02:00am 28.1 33.6 26.1 89 1.4 W 9 13 5 7 1008.1 1007.8 0.2
29/01:30am 28.3 33.4 26.2 88 1.5 W 11 15 6 8 1008.3 1008.0 0.2
29/01:00am 28.3 33.7 26.0 87 1.6 WSW 9 11 5 6 1008.6 1008.3 0.2
29/12:30am 28.2 34.0 26.1 88 1.5 WSW 7 9 4 5 1008.8 1008.5 0.2
29/12:00am 28.1 33.5 26.0 88 1.5 W 9 11 5 6 1008.5 1008.2 0.2
 
Date/Time
CST
Temp
°C
App
Temp
°C
Dew
Point
°C
Rel
Hum
%
Delta-T
°C
Wind Press
QNH
hPa
Press
MSL
hPa
Rain since
9am
mm
Dir  Spd
km/h
Gust
km/h
Spd
kts
Gust
kts
28/11:30pm 28.1 33.9 26.0 88 1.5 WSW 7 11 4 6 1008.7 1008.4 0.2
28/11:00pm 28.3 32.7 25.6 85 1.9 W 13 17 7 9 1008.8 1008.5 0.2
28/10:30pm 28.5 32.9 25.7 85 2.0 WSW 13 15 7 8 1008.7 1008.4 0.2
28/10:00pm 28.6 33.0 25.6 84 2.1 WSW 13 17 7 9 1009.2 1008.9 0.2
28/09:30pm 28.8 33.7 25.8 84 2.1 SW 11 15 6 8 1009.1 1008.8 0.2
28/09:00pm 29.1 33.5 25.7 82 2.4 SW 13 17 7 9 1009.2 1008.9 0.2
28/08:30pm 29.2 33.3 25.7 81 2.5 SW 15 20 8 11 1008.9 1008.6 0.2
28/08:00pm 29.1 33.2 25.7 82 2.4 WSW 15 24 8 13 1008.4 1008.1 0.2
28/07:30pm 29.3 33.2 25.5 80 2.7 WSW 15 22 8 12 1007.6 1007.3 0.2
28/07:00pm 29.7 32.7 25.3 77 3.1 W 19 26 10 14 1006.6 1006.3 0.2
28/06:30pm 30.3 33.3 25.2 74 3.6 W 19 26 10 14 1006.2 1005.9 0.2
28/06:00pm 31.0 33.8 25.2 71 4.1 W 20 26 11 14 1005.9 1005.6 0.2
28/05:30pm 32.2 35.3 24.8 65 5.2 W 17 24 9 13 1006.1 1005.8 0.2
28/05:00pm 32.4 35.2 24.9 64 5.3 W 19 24 10 13 1006.1 1005.8 0.2
28/04:30pm 32.7 36.4 25.2 64 5.3 WSW 15 20 8 11 1006.4 1006.1 0.2
28/04:00pm 32.9 35.9 25.2 64 5.5 W 19 26 10 14 1006.7 1006.4 0.2
28/03:30pm 33.2 36.2 25.3 63 5.6 W 19 26 10 14 1006.9 1006.6 0.2
28/03:00pm 32.7 35.9 24.9 63 5.5 W 17 26 9 14 1007.2 1006.9 0.2
28/02:30pm 32.3 35.2 24.5 63 5.5 W 17 24 9 13 1007.6 1007.3 0.2
28/02:00pm 32.6 34.9 24.5 62 5.7 W 20 28 11 15 1007.9 1007.6 0.2
28/01:30pm 32.5 34.5 23.9 60 6.0 W 20 26 11 14 1008.5 1008.2 0.2
28/01:00pm 32.3 34.3 24.0 61 5.8 W 20 30 11 16 1008.8 1008.5 0.2
28/12:30pm 31.8 32.6 23.1 60 6.0 WSW 24 32 13 17 1009.4 1009.1 0.2
28/12:00pm 31.9 34.4 24.7 65 5.1 W 20 28 11 15 1010.0 1009.8 0.2
28/11:30am 31.3 33.8 24.5 67 4.8 W 19 32 10 17 1010.4 1010.2 0.2
28/11:00am 31.9 34.2 25.1 67 4.8 WNW 22 30 12 16 1010.4 1010.2 0.2
28/10:30am 31.1 34.2 24.8 69 4.4 W 17 24 9 13 1010.9 1010.7 0.2
28/10:00am 30.5 33.5 24.7 71 4.1 WSW 17 28 9 15 1010.9 1010.7 0.2
28/09:30am 30.6 34.1 25.4 74 3.7 W 17 22 9 12 1010.9 1010.7 0.0
28/09:00am 29.9 33.8 25.4 77 3.2 W 15 20 8 11 1011.0 1010.8 0.2
28/08:30am 29.2 32.2 24.6 76 3.2 W 17 24 9 13 1010.8 1010.6 0.2
28/08:00am 28.9 32.4 25.4 81 2.5 W 17 26 9 14 1010.2 1010.0 0.2
28/07:30am 28.4 31.3 25.4 84 2.1 WNW 20 26 11 14 1009.8 1009.6 0.2
28/07:00am 27.9 30.5 24.6 82 2.3 W 19 22 10 12 1009.5 1009.3 0.2
28/06:30am 28.0 31.2 24.9 83 2.2 W 17 20 9 11 1009.4 1009.1 0.2
28/06:00am 27.9 31.4 24.8 83 2.2 W 15 17 8 9 1009.4 1009.1 0.2
28/05:30am 27.9 31.8 24.8 83 2.2 W 13 17 7 9 1009.2 1008.9 0.2
28/05:00am 28.1 31.1 24.7 82 2.4 W 17 24 9 13 1009.2 1008.9 0.2
28/04:30am 27.9 31.8 24.9 84 2.1 W 13 19 7 10 1009.0 1008.7 0.2
28/04:00am 27.6 31.6 25.0 86 1.8 W 13 15 7 8 1008.9 1008.6 0.2
28/03:30am 27.6 31.9 24.9 85 1.9 W 11 19 6 10 1008.9 1008.6 0.2
28/03:00am 27.8 32.4 24.8 84 2.1 WSW 9 13 5 7 1008.8 1008.5 0.2
28/02:30am 27.8 32.5 24.9 84 2.0 W 9 13 5 7 1008.9 1008.6 0.2
28/02:00am 28.0 32.5 24.6 82 2.4 W 9 13 5 7 1008.9 1008.6 0.2
28/01:30am 28.0 31.6 24.3 80 2.6 W 13 19 7 10 1008.6 1008.3 0.2
28/01:00am 27.9 32.0 24.6 82 2.3 SW 11 13 6 7 1009.0 1008.7 0.2
28/12:30am 27.8 32.9 24.9 84 2.0 SW 7 11 4 6 1009.3 1009.0 0.2
28/12:00am 27.8 32.9 24.9 84 2.0 SW 7 9 4 5 1009.6 1009.4 0.2
 
Date/Time
CST
Temp
°C
App
Temp
°C
Dew
Point
°C
Rel
Hum
%
Delta-T
°C
Wind Press
QNH
hPa
Press
MSL
hPa
Rain since
9am
mm
Dir  Spd
km/h
Gust
km/h
Spd
kts
Gust
kts
27/11:30pm 27.8 32.9 24.9 84 2.0 SW 7 11 4 6 1010.1 1009.9 0.2
27/11:00pm 27.7 32.9 25.1 86 1.8 SW 7 9 4 5 1010.8 1010.6 0.2
27/10:30pm 27.9 33.2 25.0 84 2.0 SW 6 7 3 4 1010.8 1010.6 0.2
27/10:00pm 27.9 33.3 25.2 85 1.9 W 6 11 3 6 1010.8 1010.6 0.2
27/09:30pm 28.0 33.1 25.0 84 2.1 W 7 9 4 5 1010.5 1010.3 0.2
27/09:00pm 28.2 33.3 24.9 82 2.3 WSW 7 9 4 5 1010.0 1009.8 0.2
27/08:30pm 28.3 32.9 24.7 81 2.5 W 9 11 5 6 1009.4 1009.1 0.2
27/08:00pm 28.5 33.3 24.5 79 2.8 W 7 13 4 7 1008.8 1008.5 0.2
27/07:30pm 28.4 32.2 24.7 80 2.6 W 13 19 7 10 1008.0 1007.7 0.2
27/07:00pm 28.7 32.2 24.2 76 3.1 WNW 13 17 7 9 1007.7 1007.4 0.2
27/06:30pm 29.2 33.4 24.8 77 3.1 W 11 17 6 9 1008.0 1007.7 0.2
27/06:00pm 29.4 33.4 25.1 77 3.0 W 13 20 7 11 1007.9 1007.6 0.2
27/05:30pm 29.7 33.1 25.2 77 3.2 W 17 20 9 11 1008.0 1007.7 0.2
27/05:00pm 30.5 34.0 24.8 71 4.0 W 15 19 8 10 1007.9 1007.6 0.2
27/04:30pm 30.6 33.5 24.5 70 4.3 W 17 22 9 12 1007.9 1007.6 0.2
27/04:00pm 30.0 33.6 24.4 72 3.9 W 13 17 7 9 1008.1 1007.8 0.2
27/03:30pm 29.2 34.3 24.9 77 3.0 WNW 7 11 4 6 1008.3 1008.0 0.2
27/03:00pm 28.9 32.6 24.6 77 3.0 WSW 13 17 7 9 1008.5 1008.2 0.0
27/02:30pm 29.8 32.0 23.3 68 4.5 W 17 22 9 12 1008.6 1008.3 0.0
27/02:00pm 30.5 32.3 23.6 66 4.8 WNW 20 26 11 14 1008.8 1008.5 0.0
27/01:30pm 30.8 32.6 23.6 65 5.0 W 20 30 11 16 1009.2 1008.9 0.0
27/01:00pm 30.8 34.5 25.1 71 4.0 W 15 22 8 12 1009.5 1009.3 0.0
27/12:30pm 30.3 33.7 25.2 74 3.6 WNW 17 26 9 14 1010.1 1009.9 0.0
27/12:00pm 29.7 33.6 24.9 75 3.4 WSW 13 19 7 10 1010.5 1010.3 0.0
27/11:30am 30.3 32.0 24.1 69 4.3 WNW 22 28 12 15 1010.6 1010.4 0.0
27/11:00am 29.0 32.5 24.9 78 2.9 WNW 15 20 8 11 1011.1 1010.9 0.0
27/10:30am 30.1 33.9 24.7 73 3.8 W 13 19 7 10 1011.2 1011.0 0.0
27/10:00am 28.5 30.1 22.9 71 3.8 WSW 19 28 10 15 1011.2 1011.0 0.0
27/09:30am 29.1 34.5 25.1 79 2.8 SW 6 9 3 5 1011.3 1011.1 0.0
27/09:00am 28.2 33.8 25.4 85 2.0 SSW 6 6 3 3 1011.2 1011.0 0.4
27/08:30am 27.7 33.8 25.6 88 1.5 S 4 6 2 3 1010.6 1010.4 0.4

Latest Capital City Observations: Canberra | Sydney | Melbourne | Brisbane | Adelaide | Perth | Hobart | Darwin

Other Formats:

Comma delimited format used in spreadsheet applications
http://www.bom.gov.au/fwo/IDD60901/IDD60901.94120.axf

JavaScript Object Notation format (JSON) in row-major order
http://www.bom.gov.au/fwo/IDD60901/IDD60901.94120.json